Terminal Aerodrome Forecast
Issued by NWS

Current Version | Previous Version | Text Only | Print | Product List | Glossary Off
Versions: 1 2 3 4 5 6 7 8 9 10 11 12 13 14 15 16 17 18 19 20 21 22 23

000
FTUS41 KILN 300832 AAB
TAFLUK
TAF AMD
KLUK 300832Z 3009/3106 20004KT 2SM BR SCT080 BKN200
      TEMPO 3009/3012 00000KT 1/2SM FG VV002
     FM301200 21008KT P6SM FEW030 BKN080 OVC150
     FM301800 20008KT P6SM VCSH SCT040 BKN150
     FM302300 22003KT P6SM BKN150
     FM310500 22003KT P6SM BKN030=

USA.gov is the U.S. government's official web portal to all federal, state and local government web resources and services.